createdAt,value
2019-05-03T00:01:29.395Z,31.77
2019-05-03T00:03:59.989Z,29.60
2019-05-03T00:06:32.097Z,33.87
2019-05-03T00:09:02.936Z,31.93
2019-05-03T00:11:34.336Z,31.87
2019-05-03T00:14:05.721Z,31.37
2019-05-03T00:16:37.975Z,29.60
2019-05-03T00:19:08.503Z,30.43
2019-05-03T00:21:39.122Z,29.90
2019-05-03T00:24:09.646Z,31.87
2019-05-03T00:26:42.208Z,31.83
2019-05-03T00:29:13.415Z,26.20
2019-05-03T00:31:45.488Z,27.17
2019-05-03T00:34:21.865Z,31.77
2019-05-03T00:36:55.714Z,30.03
2019-05-03T00:39:32.490Z,28.77
2019-05-03T00:42:04.435Z,30.97
2019-05-03T00:44:34.956Z,29.43
2019-05-03T00:47:05.527Z,28.43
2019-05-03T00:49:36.024Z,28.33
2019-05-03T00:52:06.495Z,27.97
2019-05-03T00:54:36.990Z,31.40
2019-05-03T00:57:08.644Z,30.57
2019-05-03T00:59:39.102Z,29.47
2019-05-03T01:02:11.356Z,30.90
2019-05-03T01:04:42.672Z,32.90
2019-05-03T01:07:13.320Z,35.00
2019-05-03T01:09:43.896Z,33.47
2019-05-03T01:12:14.481Z,31.50
2019-05-03T01:14:46.651Z,33.37
2019-05-03T01:17:17.126Z,35.13
2019-05-03T01:19:47.706Z,35.13
2019-05-03T01:22:18.277Z,36.43
2019-05-03T01:24:48.736Z,34.00
2019-05-03T01:27:19.293Z,36.73
2019-05-03T01:29:51.802Z,34.43
2019-05-03T01:32:22.354Z,37.27
2019-05-03T01:34:52.875Z,38.23
2019-05-03T01:37:24.421Z,39.37
2019-05-03T01:39:54.918Z,34.70
2019-05-03T01:42:25.552Z,37.17
2019-05-03T01:44:56.115Z,39.13
2019-05-03T01:47:34.151Z,42.33
2019-05-03T01:50:15.814Z,37.70
2019-05-03T01:52:46.845Z,36.93
2019-05-03T01:55:18.791Z,42.33
2019-05-03T01:57:49.391Z,42.73
2019-05-03T02:00:25.346Z,39.37
2019-05-03T02:03:06.146Z,42.07
2019-05-03T02:05:43.638Z,40.67
2019-05-03T02:08:14.727Z,41.87
2019-05-03T02:10:45.309Z,42.70
2019-05-03T02:13:16.535Z,39.57
2019-05-03T02:15:47.121Z,41.53
2019-05-03T02:18:17.671Z,39.00
2019-05-03T02:20:48.339Z,43.83
2019-05-03T02:23:18.847Z,42.43
2019-05-03T02:25:56.078Z,41.30
2019-05-03T02:28:22.063Z,43.83
2019-05-03T02:30:53.698Z,40.27
2019-05-03T02:33:24.323Z,42.53
2019-05-03T02:35:54.904Z,42.97
2019-05-03T02:38:27.377Z,43.80
2019-05-03T02:40:57.921Z,44.27
2019-05-03T02:43:36.145Z,43.40
2019-05-03T02:46:25.116Z,45.13
2019-05-03T02:49:26.118Z,47.93
2019-05-03T02:51:56.718Z,46.33
2019-05-03T02:54:27.369Z,45.80
2019-05-03T02:56:57.900Z,47.87
2019-05-03T02:59:28.534Z,48.27
2019-05-03T03:01:59.038Z,41.53
2019-05-03T03:04:30.465Z,52.60
2019-05-03T03:07:01.401Z,48.70
2019-05-03T03:09:32.197Z,45.73
2019-05-03T03:12:06.173Z,49.27
2019-05-03T03:14:38.551Z,44.83
2019-05-03T03:17:14.907Z,45.50
2019-05-03T03:19:49.122Z,44.07
2019-05-03T03:22:21.020Z,47.20
2019-05-03T03:24:55.956Z,44.93
2019-05-03T03:27:29.429Z,45.50
2019-05-03T03:30:28.940Z,48.53
2019-05-03T03:32:58.368Z,48.43
2019-05-03T03:35:30.678Z,47.87
2019-05-03T03:38:01.329Z,52.87
2019-05-03T03:40:32.033Z,50.33
2019-05-03T03:43:05.506Z,46.47
2019-05-03T03:45:37.031Z,43.20
2019-05-03T03:48:08.342Z,47.03
2019-05-03T03:50:41.927Z,51.07
2019-05-03T03:53:15.278Z,49.13
2019-05-03T03:55:48.859Z,46.40
2019-05-03T03:58:22.767Z,45.33
2019-05-03T04:00:51.632Z,41.47
2019-05-03T04:03:25.704Z,42.67
2019-05-03T04:05:55.690Z,42.53
2019-05-03T04:08:26.422Z,36.00
2019-05-03T04:10:57.031Z,37.30
2019-05-03T04:13:27.810Z,38.33
2019-05-03T04:16:26.223Z,33.67
2019-05-03T04:19:21.455Z,36.37
2019-05-03T04:21:53.113Z,35.80
2019-05-03T04:24:25.917Z,35.80
2019-05-03T04:27:18.743Z,34.87
2019-05-03T04:29:39.692Z,35.03
2019-05-03T04:32:10.567Z,33.57
2019-05-03T04:34:41.054Z,36.70
2019-05-03T04:37:11.718Z,32.90
2019-05-03T04:39:45.354Z,32.70
2019-05-03T04:42:16.819Z,31.77
2019-05-03T04:44:47.860Z,33.40
2019-05-03T04:47:20.626Z,37.73
2019-05-03T04:49:51.187Z,39.00
2019-05-03T04:52:25.526Z,38.50
2019-05-03T04:54:56.907Z,38.70
2019-05-03T04:57:40.115Z,38.67
2019-05-03T04:59:59.667Z,40.20
2019-05-03T05:02:30.227Z,32.03
2019-05-03T05:05:02.186Z,32.60
2019-05-03T05:07:34.944Z,34.40
2019-05-03T05:10:05.399Z,33.93
2019-05-03T05:12:36.012Z,32.70
2019-05-03T05:15:07.406Z,28.60
2019-05-03T05:17:56.262Z,29.90
2019-05-03T05:20:42.030Z,30.10
2019-05-03T05:23:14.614Z,31.10
2019-05-03T05:25:50.668Z,41.73
2019-05-03T05:28:36.860Z,61.67
2019-05-03T05:31:07.428Z,63.13
2019-05-03T05:33:38.049Z,49.17
2019-05-03T05:36:09.153Z,33.63
2019-05-03T05:38:39.766Z,36.77
2019-05-03T05:41:10.395Z,34.63
2019-05-03T05:43:40.961Z,41.00
2019-05-03T05:46:11.405Z,44.30
2019-05-03T05:48:47.004Z,51.37
2019-05-03T05:51:17.636Z,62.37
2019-05-03T05:53:48.216Z,63.07
2019-05-03T05:56:38.525Z,60.20
2019-05-03T05:59:15.676Z,52.57
2019-05-03T06:01:56.706Z,43.73
2019-05-03T06:04:27.267Z,32.53
2019-05-03T06:07:24.716Z,28.00
2019-05-03T06:10:24.870Z,30.27
2019-05-03T06:13:04.945Z,33.50
2019-05-03T06:15:44.832Z,27.30
2019-05-03T06:18:24.912Z,30.97
2019-05-03T06:21:07.631Z,31.80
2019-05-03T06:23:45.873Z,30.93
2019-05-03T06:26:34.706Z,31.97
2019-05-03T06:29:11.777Z,30.63
2019-05-03T06:31:49.137Z,31.33
2019-05-03T06:34:19.652Z,29.57
2019-05-03T06:36:51.810Z,27.40
2019-05-03T06:39:22.891Z,28.93
2019-05-03T06:41:55.064Z,22.17
2019-05-03T06:44:28.607Z,21.83
2019-05-03T06:47:01.021Z,28.77
2019-05-03T06:49:30.121Z,22.40
2019-05-03T06:52:01.803Z,30.33
2019-05-03T06:54:34.242Z,27.83
2019-05-03T06:57:09.215Z,28.13
2019-05-03T06:59:48.539Z,24.57
2019-05-03T07:02:28.578Z,21.20
2019-05-03T07:05:00.844Z,23.80
2019-05-03T07:07:44.454Z,20.77
2019-05-03T07:10:30.387Z,21.47
2019-05-03T07:13:05.124Z,21.97
2019-05-03T07:15:36.172Z,23.13
2019-05-03T07:18:06.639Z,21.77
2019-05-03T07:20:46.659Z,19.80
2019-05-03T07:23:17.294Z,22.80
2019-05-03T07:25:48.018Z,18.63
2019-05-03T07:28:18.637Z,18.40
2019-05-03T07:30:49.316Z,14.87
2019-05-03T07:33:29.002Z,20.40
2019-05-03T07:35:59.605Z,14.10
2019-05-03T07:38:30.321Z,13.77
2019-05-03T07:41:00.866Z,11.07
2019-05-03T07:43:31.397Z,8.03
2019-05-03T07:46:01.990Z,8.00
2019-05-03T07:48:32.556Z,9.83
2019-05-03T07:51:05.283Z,14.17
2019-05-03T07:53:37.104Z,16.67
2019-05-03T07:56:14.946Z,12.40
2019-05-03T07:58:59.760Z,16.53
2019-05-03T08:01:31.177Z,14.87
2019-05-03T08:04:01.696Z,16.53
2019-05-03T08:06:34.751Z,9.23
2019-05-03T08:09:08.596Z,9.37
2019-05-03T08:11:40.524Z,10.87
2019-05-03T08:14:11.071Z,13.40
2019-05-03T08:16:41.649Z,17.43
2019-05-03T08:19:12.278Z,17.03
2019-05-03T08:21:45.338Z,11.80
2019-05-03T08:24:17.174Z,13.17
2019-05-03T08:26:47.723Z,14.40
2019-05-03T08:29:19.752Z,12.03
2019-05-03T08:32:24.626Z,9.63
2019-05-03T08:35:17.823Z,8.73
2019-05-03T08:37:52.123Z,10.30
2019-05-03T08:40:25.105Z,8.67
2019-05-03T08:42:55.662Z,10.23
2019-05-03T08:45:26.085Z,10.73
2019-05-03T08:47:56.705Z,8.60
2019-05-03T08:50:28.683Z,8.80
2019-05-03T08:52:59.328Z,9.33
2019-05-03T08:55:31.358Z,11.23
2019-05-03T08:58:05.036Z,9.67
2019-05-03T09:00:38.858Z,10.87
2019-05-03T09:03:11.208Z,7.97
2019-05-03T09:05:45.361Z,10.23
2019-05-03T09:08:15.734Z,11.40
2019-05-03T09:10:59.959Z,12.43
2019-05-03T09:13:52.666Z,10.07
2019-05-03T09:16:25.008Z,13.07
2019-05-03T09:18:55.632Z,8.90
2019-05-03T09:21:26.363Z,12.47
2019-05-03T09:23:56.966Z,11.03
2019-05-03T09:26:29.466Z,12.43
2019-05-03T09:28:59.970Z,11.40
2019-05-03T09:31:35.134Z,13.87
2019-05-03T09:34:08.085Z,13.97
2019-05-03T09:36:38.006Z,15.97
2019-05-03T09:39:09.164Z,11.57
2019-05-03T09:41:41.186Z,11.10
2019-05-03T09:44:11.672Z,10.03
2019-05-03T09:46:42.196Z,8.43
2019-05-03T09:49:15.829Z,9.97
2019-05-03T09:51:44.901Z,9.23
2019-05-03T09:54:20.678Z,7.97
2019-05-03T09:56:58.629Z,10.47
2019-05-03T09:59:29.947Z,7.80
2019-05-03T10:02:01.812Z,11.73
2019-05-03T10:04:32.401Z,13.90
2019-05-03T10:07:02.936Z,8.67
2019-05-03T10:09:35.398Z,14.20
2019-05-03T10:12:09.464Z,21.20
2019-05-03T10:14:40.071Z,21.47
2019-05-03T10:17:37.294Z,17.53
2019-05-03T10:20:10.276Z,10.80
2019-05-03T10:22:40.858Z,10.07
2019-05-03T10:25:11.572Z,11.93
2019-05-03T10:27:48.466Z,17.80
2019-05-03T10:30:26.539Z,20.30
2019-05-03T10:33:22.629Z,11.97
2019-05-03T10:35:54.515Z,11.83
2019-05-03T10:38:27.162Z,14.00
2019-05-03T10:40:57.376Z,19.63
2019-05-03T10:43:28.033Z,24.27
2019-05-03T10:45:58.767Z,12.93
2019-05-03T10:48:29.412Z,15.87
2019-05-03T10:51:01.357Z,15.83
2019-05-03T10:53:36.546Z,19.53
2019-05-03T10:56:23.341Z,17.20
2019-05-03T10:59:01.954Z,18.57
2019-05-03T11:01:45.263Z,11.37
2019-05-03T11:04:15.958Z,16.03
2019-05-03T11:06:47.673Z,13.93
2019-05-03T11:09:18.248Z,20.40
2019-05-03T11:11:48.907Z,17.80
2019-05-03T11:14:19.536Z,22.67
2019-05-03T11:16:51.694Z,22.33
2019-05-03T11:19:22.304Z,14.27
2019-05-03T11:21:54.600Z,15.60
2019-05-03T11:24:27.153Z,19.73
2019-05-03T11:27:00.229Z,26.70
2019-05-03T11:29:32.042Z,21.47
2019-05-03T11:32:20.456Z,26.20
2019-05-03T11:35:11.408Z,12.07
2019-05-03T11:37:48.414Z,15.40
2019-05-03T11:40:19.012Z,13.80
2019-05-03T11:42:51.349Z,11.97
2019-05-03T11:45:22.072Z,15.33
2019-05-03T11:47:54.899Z,13.07
2019-05-03T11:50:25.464Z,15.57
2019-05-03T11:52:56.226Z,21.03
2019-05-03T11:55:27.002Z,14.37
2019-05-03T11:57:57.670Z,13.47
2019-05-03T12:00:32.886Z,13.20
2019-05-03T12:03:15.527Z,14.17
2019-05-03T12:05:49.343Z,15.10
2019-05-03T12:08:19.917Z,12.00
2019-05-03T12:11:00.581Z,15.23
2019-05-03T12:13:30.001Z,13.03
2019-05-03T12:16:02.913Z,13.03
2019-05-03T12:18:48.015Z,10.33
2019-05-03T12:21:08.212Z,10.67
2019-05-03T12:23:39.748Z,12.00
2019-05-03T12:26:13.378Z,11.33
2019-05-03T12:28:44.808Z,10.97
2019-05-03T12:31:29.385Z,8.47
2019-05-03T12:33:47.773Z,9.07
2019-05-03T12:36:19.894Z,9.47
2019-05-03T12:38:51.461Z,12.20
2019-05-03T12:41:22.097Z,7.47
2019-05-03T12:43:52.570Z,9.07
2019-05-03T12:46:23.124Z,10.03
2019-05-03T12:48:53.588Z,9.73
2019-05-03T12:51:25.550Z,8.57
2019-05-03T12:53:58.459Z,10.00
2019-05-03T12:56:32.773Z,9.53
2019-05-03T12:59:06.851Z,9.97
2019-05-03T13:02:02.568Z,6.90
2019-05-03T13:04:37.496Z,9.83
2019-05-03T13:07:18.548Z,8.07
2019-05-03T13:09:49.144Z,7.97
2019-05-03T13:12:26.501Z,8.33
2019-05-03T13:14:58.511Z,8.50
2019-05-03T13:17:38.612Z,8.17
2019-05-03T13:20:13.484Z,9.30
2019-05-03T13:22:45.724Z,9.90
2019-05-03T13:25:18.159Z,8.60
2019-05-03T13:27:49.576Z,10.10
2019-05-03T13:30:20.246Z,9.53
2019-05-03T13:32:51.092Z,9.67
2019-05-03T13:35:25.684Z,11.07
2019-05-03T13:37:56.060Z,7.37
2019-05-03T13:40:26.773Z,9.20
2019-05-03T13:43:03.495Z,10.33
2019-05-03T13:45:30.694Z,7.93
2019-05-03T13:48:02.026Z,13.23
2019-05-03T13:50:32.630Z,11.67
2019-05-03T13:53:04.832Z,9.30
2019-05-03T13:55:36.735Z,10.03
2019-05-03T13:58:08.504Z,8.33
2019-05-03T14:00:39.300Z,9.03
2019-05-03T14:03:09.905Z,10.53
2019-05-03T14:05:41.484Z,8.97
2019-05-03T14:08:15.410Z,11.67
2019-05-03T14:10:45.810Z,12.80
2019-05-03T14:13:16.370Z,9.87
2019-05-03T14:15:47.010Z,10.70
2019-05-03T14:18:17.519Z,14.53
2019-05-03T14:21:14.965Z,8.10
2019-05-03T14:24:04.971Z,8.07
2019-05-03T14:26:35.585Z,12.47
2019-05-03T14:29:06.174Z,11.07
2019-05-03T14:31:36.863Z,8.57
2019-05-03T14:34:07.439Z,10.63
2019-05-03T14:36:38.166Z,8.77
2019-05-03T14:39:10.378Z,10.50
2019-05-03T14:41:41.043Z,11.93
2019-05-03T14:44:14.499Z,10.50
2019-05-03T14:46:45.680Z,6.83
2019-05-03T14:49:15.801Z,10.67
2019-05-03T14:51:46.292Z,10.60
2019-05-03T14:54:16.933Z,14.13
2019-05-03T14:57:08.031Z,15.20
2019-05-03T15:00:16.885Z,10.33
2019-05-03T15:02:52.001Z,11.50
2019-05-03T15:05:22.533Z,8.30
2019-05-03T15:07:55.846Z,11.27
2019-05-03T15:10:26.169Z,10.87
2019-05-03T15:12:56.923Z,8.63
2019-05-03T15:15:28.937Z,7.60
2019-05-03T15:17:59.773Z,8.47
2019-05-03T15:20:30.761Z,10.43
2019-05-03T15:23:01.583Z,6.47
2019-05-03T15:25:34.424Z,7.90
2019-05-03T15:28:05.161Z,9.20
2019-05-03T15:30:35.802Z,10.10
2019-05-03T15:33:06.636Z,9.10
2019-05-03T15:35:37.407Z,5.43
2019-05-03T15:38:08.065Z,6.03
2019-05-03T15:40:38.703Z,9.73
2019-05-03T15:43:21.126Z,9.27
2019-05-03T15:46:19.794Z,6.93
2019-05-03T15:48:55.125Z,7.33
2019-05-03T15:51:26.929Z,5.30
2019-05-03T15:53:59.000Z,8.83
2019-05-03T15:56:29.612Z,6.83
2019-05-03T15:59:00.301Z,6.53
2019-05-03T16:01:35.163Z,8.53
2019-05-03T16:04:05.334Z,9.50
2019-05-03T16:06:35.912Z,6.70
2019-05-03T16:09:07.578Z,7.60
2019-05-03T16:11:38.695Z,9.57
2019-05-03T16:14:09.191Z,5.57
2019-05-03T16:16:39.722Z,7.67
2019-05-03T16:19:10.420Z,6.87
2019-05-03T16:21:41.014Z,5.90
2019-05-03T16:24:11.568Z,6.73
2019-05-03T16:26:59.882Z,7.07
2019-05-03T16:29:30.929Z,11.03
2019-05-03T16:32:01.459Z,8.27
2019-05-03T16:34:35.019Z,6.53
2019-05-03T16:37:05.946Z,7.43
2019-05-03T16:39:36.623Z,13.50
2019-05-03T16:42:08.730Z,17.30
2019-05-03T16:44:39.337Z,9.10
2019-05-03T16:47:09.851Z,9.60
2019-05-03T16:49:41.600Z,7.33
2019-05-03T16:52:12.387Z,9.37
2019-05-03T16:54:45.349Z,8.93
2019-05-03T16:57:17.545Z,10.80
2019-05-03T16:59:49.313Z,7.63
2019-05-03T17:02:19.839Z,7.43
2019-05-03T17:04:58.567Z,12.67
2019-05-03T17:07:40.158Z,9.43
2019-05-03T17:10:17.701Z,9.30
2019-05-03T17:12:48.346Z,11.33
2019-05-03T17:15:19.103Z,9.30
2019-05-03T17:17:49.999Z,8.50
2019-05-03T17:20:20.735Z,9.30
2019-05-03T17:22:51.429Z,10.03
2019-05-03T17:25:22.045Z,11.23
2019-05-03T17:27:54.327Z,12.87
2019-05-03T17:30:32.607Z,13.50
2019-05-03T17:32:57.236Z,11.47
2019-05-03T17:35:27.798Z,13.70
2019-05-03T17:37:58.519Z,10.50
2019-05-03T17:40:46.797Z,14.53
2019-05-03T17:43:25.017Z,9.53
2019-05-03T17:45:56.850Z,15.13
2019-05-03T17:48:27.542Z,15.70
2019-05-03T17:50:58.443Z,17.67
2019-05-03T17:53:54.816Z,13.30
2019-05-03T17:56:45.391Z,8.83
2019-05-03T17:59:26.601Z,9.27
2019-05-03T18:02:16.042Z,10.10
2019-05-03T18:05:05.497Z,9.43
2019-05-03T18:07:56.199Z,11.67
2019-05-03T18:10:27.169Z,16.60
2019-05-03T18:12:57.919Z,18.60
2019-05-03T18:15:28.578Z,9.80
2019-05-03T18:17:59.152Z,15.83
2019-05-03T18:20:30.303Z,17.00
2019-05-03T18:23:00.762Z,12.10
2019-05-03T18:25:32.258Z,13.83
2019-05-03T18:28:04.404Z,15.70
2019-05-03T18:30:35.003Z,15.47
2019-05-03T18:33:05.731Z,15.73
2019-05-03T18:35:36.226Z,17.63
2019-05-03T18:38:06.849Z,14.77
2019-05-03T18:40:38.435Z,13.93
2019-05-03T18:43:14.978Z,17.10
2019-05-03T18:46:04.946Z,12.50
2019-05-03T18:48:35.563Z,14.00
2019-05-03T18:51:06.244Z,10.50
2019-05-03T18:53:36.884Z,9.77
2019-05-03T18:56:07.583Z,12.20
2019-05-03T18:58:38.265Z,10.40
2019-05-03T19:01:09.314Z,8.87
2019-05-03T19:03:39.904Z,9.17
2019-05-03T19:06:12.605Z,9.27
2019-05-03T19:09:05.338Z,8.93
2019-05-03T19:11:44.874Z,11.97
2019-05-03T19:14:17.383Z,13.13
2019-05-03T19:17:01.531Z,9.77
2019-05-03T19:19:36.058Z,11.53
2019-05-03T19:22:06.903Z,11.87
2019-05-03T19:24:37.618Z,17.37
2019-05-03T19:27:08.905Z,12.77
2019-05-03T19:29:39.469Z,15.03
2019-05-03T19:32:10.066Z,10.97
2019-05-03T19:34:48.467Z,13.73
2019-05-03T19:37:14.546Z,15.10
2019-05-03T19:39:47.099Z,9.10
2019-05-03T19:42:17.631Z,16.20
2019-05-03T19:44:48.238Z,11.97
2019-05-03T19:47:19.356Z,12.87
2019-05-03T19:49:49.892Z,15.63
2019-05-03T19:52:25.455Z,13.53
2019-05-03T19:54:56.169Z,17.70
2019-05-03T19:57:31.900Z,14.77
2019-05-03T20:00:02.606Z,17.53
2019-05-03T20:02:54.311Z,13.57
2019-05-03T20:05:55.723Z,17.87
2019-05-03T20:08:36.230Z,16.50
2019-05-03T20:11:16.542Z,16.67
2019-05-03T20:13:47.762Z,19.10
2019-05-03T20:16:18.408Z,18.10
2019-05-03T20:18:49.049Z,13.53
2019-05-03T20:21:20.294Z,14.67
2019-05-03T20:23:52.318Z,12.33
2019-05-03T20:26:22.827Z,14.73
2019-05-03T20:28:55.192Z,16.40
2019-05-03T20:31:26.012Z,13.63
2019-05-03T20:33:57.818Z,15.77
2019-05-03T20:36:28.404Z,16.77
2019-05-03T20:38:59.032Z,10.17
2019-05-03T20:41:29.660Z,10.37
2019-05-03T20:44:18.153Z,11.13
2019-05-03T20:47:04.396Z,11.23
2019-05-03T20:49:35.918Z,10.97
2019-05-03T20:52:06.556Z,9.97
2019-05-03T20:54:37.249Z,12.33
2019-05-03T20:57:07.816Z,11.47
2019-05-03T20:59:45.200Z,10.27
2019-05-03T21:02:12.499Z,17.70
2019-05-03T21:04:43.214Z,12.17
2019-05-03T21:07:15.251Z,14.53
2019-05-03T21:09:47.432Z,13.77
2019-05-03T21:12:18.116Z,15.37
2019-05-03T21:14:48.642Z,12.17
2019-05-03T21:17:34.595Z,13.83
2019-05-03T21:20:10.005Z,13.60
2019-05-03T21:22:46.298Z,9.53
2019-05-03T21:25:27.923Z,17.80
2019-05-03T21:27:58.520Z,11.53
2019-05-03T21:30:29.284Z,15.70
2019-05-03T21:32:59.944Z,18.00
2019-05-03T21:35:39.366Z,16.80
2019-05-03T21:38:02.758Z,19.63
2019-05-03T21:40:34.882Z,18.00
2019-05-03T21:43:07.814Z,17.63
2019-05-03T21:45:45.936Z,16.23
2019-05-03T21:48:21.186Z,20.67
2019-05-03T21:50:51.758Z,18.60
2019-05-03T21:53:22.390Z,17.60
2019-05-03T21:55:53.046Z,17.07
2019-05-03T21:58:25.018Z,18.77
2019-05-03T22:01:05.079Z,16.90
2019-05-03T22:03:37.432Z,20.07
2019-05-03T22:06:08.040Z,18.97
2019-05-03T22:08:38.518Z,18.77
2019-05-03T22:11:09.053Z,18.60
2019-05-03T22:13:40.510Z,19.70
2019-05-03T22:16:28.846Z,16.13
2019-05-03T22:18:59.385Z,14.07
2019-05-03T22:21:55.358Z,12.40
2019-05-03T22:24:36.712Z,15.60
2019-05-03T22:27:11.456Z,12.57
2019-05-03T22:29:42.322Z,19.87
2019-05-03T22:32:13.026Z,20.53
2019-05-03T22:34:44.104Z,16.30
2019-05-03T22:37:16.647Z,16.87
2019-05-03T22:39:47.696Z,16.53
2019-05-03T22:42:18.702Z,21.00
2019-05-03T22:44:49.287Z,14.87
2019-05-03T22:47:19.819Z,18.07
2019-05-03T22:49:50.344Z,13.47
2019-05-03T22:52:20.936Z,16.60
2019-05-03T22:54:51.448Z,16.10
2019-05-03T22:57:24.550Z,14.90
2019-05-03T22:59:56.312Z,18.60
2019-05-03T23:02:26.884Z,20.63
2019-05-03T23:04:57.512Z,16.43
2019-05-03T23:07:28.169Z,16.80
2019-05-03T23:09:58.674Z,14.10
2019-05-03T23:12:29.174Z,14.37
2019-05-03T23:14:59.758Z,35.90
2019-05-03T23:17:30.320Z,71.57
2019-05-03T23:20:06.931Z,49.10
2019-05-03T23:22:37.503Z,25.77
2019-05-03T23:25:09.056Z,31.17
2019-05-03T23:27:40.826Z,28.37
2019-05-03T23:30:11.485Z,24.37
2019-05-03T23:32:42.118Z,24.47
2019-05-03T23:35:12.835Z,23.43
2019-05-03T23:37:44.981Z,25.67
2019-05-03T23:40:15.741Z,20.53
2019-05-03T23:42:46.234Z,19.93
2019-05-03T23:45:16.813Z,17.47
2019-05-03T23:47:48.549Z,18.50
2019-05-03T23:50:20.751Z,17.17
2019-05-03T23:52:54.436Z,19.30
2019-05-03T23:55:41.330Z,13.43
2019-05-03T23:58:12.982Z,15.43
